createdAt,value
2018-12-20T00:00:30.381Z,989.27
2018-12-20T00:01:30.270Z,989.3
2018-12-20T00:02:30.259Z,989.34
2018-12-20T00:03:30.266Z,989.38
2018-12-20T00:04:30.256Z,989.31
2018-12-20T00:05:30.288Z,989.27
2018-12-20T00:06:30.358Z,989.25
2018-12-20T00:07:30.220Z,989.27
2018-12-20T00:08:30.365Z,989.23
2018-12-20T00:09:30.231Z,989.29
2018-12-20T00:10:30.206Z,989.32
2018-12-20T00:11:30.197Z,989.4
2018-12-20T00:12:30.177Z,989.32
2018-12-20T00:13:30.172Z,989.32
2018-12-20T00:14:30.255Z,989.33
2018-12-20T00:15:30.216Z,989.32
2018-12-20T00:16:30.147Z,989.27
2018-12-20T00:17:30.268Z,989.28
2018-12-20T00:18:30.260Z,989.25
2018-12-20T00:19:30.123Z,989.27
2018-12-20T00:20:30.124Z,989.3
2018-12-20T00:21:30.219Z,989.32
2018-12-20T00:22:30.101Z,989.29
2018-12-20T00:23:30.116Z,989.29
2018-12-20T00:24:30.089Z,989.3
2018-12-20T00:25:30.086Z,989.26
2018-12-20T00:26:30.068Z,989.22
2018-12-20T00:27:30.101Z,989.21
2018-12-20T00:28:30.163Z,989.25
2018-12-20T00:29:30.173Z,989.22
2018-12-20T00:30:30.163Z,989.21
2018-12-20T00:31:30.036Z,989.21
2018-12-20T00:32:30.155Z,989.26
2018-12-20T00:33:30.038Z,989.22
2018-12-20T00:34:30.029Z,989.19
2018-12-20T00:35:30.096Z,989.27
2018-12-20T00:36:30.171Z,989.26
2018-12-20T00:37:30.003Z,989.29
2018-12-20T00:38:30.059Z,989.28
2018-12-20T00:39:29.982Z,989.27
2018-12-20T00:40:30.013Z,989.29
2018-12-20T00:41:29.975Z,989.28
2018-12-20T00:42:29.975Z,989.24
2018-12-20T00:43:30.059Z,989.25
2018-12-20T00:44:37.214Z,989.26
2018-12-20T00:45:30.076Z,989.23
2018-12-20T00:46:29.909Z,989.27
2018-12-20T00:47:29.921Z,989.28
2018-12-20T00:48:30.018Z,989.3
2018-12-20T00:49:31.138Z,989.34
2018-12-20T00:50:29.967Z,989.31
2018-12-20T00:51:29.941Z,989.3
2018-12-20T00:52:29.875Z,989.36
2018-12-20T00:53:29.861Z,989.32
2018-12-20T00:54:29.860Z,989.3
2018-12-20T00:55:29.859Z,989.35
2018-12-20T00:56:29.834Z,989.35
2018-12-20T00:57:29.827Z,989.36
2018-12-20T00:58:29.818Z,989.39
2018-12-20T00:59:29.843Z,989.38
2018-12-20T01:00:29.952Z,989.35
2018-12-20T01:01:29.797Z,989.42
2018-12-20T01:02:29.961Z,989.47
2018-12-20T01:03:29.831Z,989.37
2018-12-20T01:04:29.858Z,989.42
2018-12-20T01:05:29.981Z,989.39
2018-12-20T01:06:29.752Z,989.45
2018-12-20T01:07:29.843Z,989.47
2018-12-20T01:08:29.808Z,989.46
2018-12-20T01:09:29.730Z,989.45
2018-12-20T01:10:29.744Z,989.42
2018-12-20T01:11:29.874Z,989.43
2018-12-20T01:12:29.711Z,989.45
2018-12-20T01:13:29.884Z,989.46
2018-12-20T01:14:29.927Z,989.45
2018-12-20T01:15:29.678Z,989.44
2018-12-20T01:16:29.669Z,989.52
2018-12-20T01:17:29.673Z,989.52
2018-12-20T01:18:29.738Z,989.51
2018-12-20T01:19:29.645Z,989.56
2018-12-20T01:20:29.721Z,989.56
2018-12-20T01:21:29.628Z,989.58
2018-12-20T01:22:29.620Z,989.52
2018-12-20T01:23:29.611Z,989.51
2018-12-20T01:24:29.609Z,989.54
2018-12-20T01:25:29.596Z,989.54
2018-12-20T01:26:29.595Z,989.52
2018-12-20T01:27:29.584Z,989.54
2018-12-20T01:28:29.569Z,989.59
2018-12-20T01:29:29.607Z,989.66
2018-12-20T01:30:29.614Z,989.66
2018-12-20T01:31:29.589Z,989.72
2018-12-20T01:32:29.537Z,989.75
2018-12-20T01:33:29.571Z,989.76
2018-12-20T01:34:29.551Z,989.79
2018-12-20T01:35:29.550Z,989.8
2018-12-20T01:36:29.542Z,989.82
2018-12-20T01:37:29.500Z,989.81
2018-12-20T01:38:29.490Z,989.76
2018-12-20T01:39:29.484Z,989.74
2018-12-20T01:40:29.529Z,989.7
2018-12-20T01:41:29.465Z,989.71
2018-12-20T01:42:29.452Z,989.74
2018-12-20T01:43:29.481Z,989.76
2018-12-20T01:44:29.564Z,989.71
2018-12-20T01:45:29.490Z,989.75
2018-12-20T01:46:29.445Z,989.81
2018-12-20T01:47:29.460Z,989.84
2018-12-20T01:48:29.416Z,989.82
2018-12-20T01:49:29.568Z,989.81
2018-12-20T01:50:29.452Z,989.83
2018-12-20T01:51:29.447Z,989.8
2018-12-20T01:52:29.372Z,989.79
2018-12-20T01:53:29.423Z,989.79
2018-12-20T01:54:29.518Z,989.79
2018-12-20T01:55:29.517Z,989.75
2018-12-20T01:56:29.514Z,989.71
2018-12-20T01:57:29.378Z,989.69
2018-12-20T01:58:29.322Z,989.73
2018-12-20T01:59:29.407Z,989.73
2018-12-20T02:00:29.452Z,989.74
2018-12-20T02:01:29.297Z,989.72
2018-12-20T02:02:29.339Z,989.74
2018-12-20T02:03:29.332Z,989.74
2018-12-20T02:04:29.278Z,989.76
2018-12-20T02:05:29.374Z,989.8
2018-12-20T02:06:29.433Z,989.72
2018-12-20T02:07:29.493Z,989.76
2018-12-20T02:08:29.430Z,989.77
2018-12-20T02:09:29.244Z,989.8
2018-12-20T02:10:29.328Z,989.85
2018-12-20T02:11:29.212Z,989.88
2018-12-20T02:12:29.353Z,989.91
2018-12-20T02:13:29.409Z,989.9
2018-12-20T02:14:29.335Z,989.89
2018-12-20T02:15:29.243Z,989.93
2018-12-20T02:16:29.353Z,989.92
2018-12-20T02:17:29.319Z,989.95
2018-12-20T02:18:29.162Z,989.9
2018-12-20T02:19:29.165Z,989.87
2018-12-20T02:20:29.693Z,989.83
2018-12-20T02:21:29.171Z,989.82
2018-12-20T02:22:29.126Z,989.88
2018-12-20T02:23:29.281Z,989.9
2018-12-20T02:24:29.109Z,989.92
2018-12-20T02:25:29.103Z,989.92
2018-12-20T02:26:29.097Z,989.93
2018-12-20T02:27:29.085Z,989.95
2018-12-20T02:28:29.076Z,989.93
2018-12-20T02:29:29.068Z,989.94
2018-12-20T02:30:29.225Z,989.87
2018-12-20T02:31:29.066Z,989.93
2018-12-20T02:32:29.087Z,989.85
2018-12-20T02:33:29.042Z,989.85
2018-12-20T02:34:29.058Z,989.86
2018-12-20T02:35:29.021Z,989.85
2018-12-20T02:36:29.230Z,989.87
2018-12-20T02:37:29.169Z,989.85
2018-12-20T02:38:29.001Z,989.86
2018-12-20T02:39:29.068Z,989.86
2018-12-20T02:40:29.233Z,989.83
2018-12-20T02:41:28.981Z,989.85
2018-12-20T02:42:28.977Z,989.81
2018-12-20T02:43:29.336Z,989.9
2018-12-20T02:44:28.979Z,989.89
2018-12-20T02:45:28.944Z,989.91
2018-12-20T02:46:28.927Z,989.91
2018-12-20T02:47:29.068Z,989.96
2018-12-20T02:48:28.911Z,989.95
2018-12-20T02:49:28.978Z,989.97
2018-12-20T02:50:28.962Z,989.96
2018-12-20T02:51:29.134Z,989.95
2018-12-20T02:52:28.879Z,989.97
2018-12-20T02:53:28.968Z,989.91
2018-12-20T02:54:28.859Z,989.9
2018-12-20T02:55:28.853Z,989.89
2018-12-20T02:56:28.842Z,989.92
2018-12-20T02:57:28.833Z,989.88
2018-12-20T02:58:28.873Z,989.9
2018-12-20T02:59:28.816Z,989.88
2018-12-20T03:00:28.813Z,989.84
2018-12-20T03:01:28.799Z,989.85
2018-12-20T03:02:28.821Z,989.84
2018-12-20T03:03:28.782Z,989.83
2018-12-20T03:04:29.004Z,989.84
2018-12-20T03:05:28.935Z,989.88
2018-12-20T03:06:28.768Z,989.86
2018-12-20T03:07:28.831Z,989.89
2018-12-20T03:08:28.935Z,989.84
2018-12-20T03:09:28.732Z,989.87
2018-12-20T03:10:28.897Z,989.91
2018-12-20T03:11:28.983Z,989.94
2018-12-20T03:12:28.809Z,989.93
2018-12-20T03:13:29.747Z,989.92
2018-12-20T03:14:28.942Z,989.92
2018-12-20T03:15:28.742Z,989.91
2018-12-20T03:16:28.688Z,989.96
2018-12-20T03:17:28.675Z,989.96
2018-12-20T03:18:28.684Z,989.91
2018-12-20T03:19:28.689Z,989.91
2018-12-20T03:20:28.843Z,989.9
2018-12-20T03:21:28.648Z,989.88
2018-12-20T03:22:28.687Z,989.83
2018-12-20T03:23:28.906Z,989.87
2018-12-20T03:24:28.605Z,989.87
2018-12-20T03:25:28.721Z,989.88
2018-12-20T03:26:28.691Z,989.86
2018-12-20T03:27:28.684Z,989.82
2018-12-20T03:28:28.740Z,989.78
2018-12-20T03:29:28.597Z,989.79
2018-12-20T03:30:28.555Z,989.76
2018-12-20T03:31:28.545Z,989.82
2018-12-20T03:32:28.538Z,989.84
2018-12-20T03:33:28.803Z,989.81
2018-12-20T03:34:28.792Z,989.81
2018-12-20T03:35:28.576Z,989.81
2018-12-20T03:36:30.960Z,989.82
2018-12-20T03:37:28.714Z,989.74
2018-12-20T03:38:28.485Z,989.77
2018-12-20T03:39:28.484Z,989.75
2018-12-20T03:40:28.477Z,989.74
2018-12-20T03:41:28.456Z,989.71
2018-12-20T03:42:28.449Z,989.72
2018-12-20T03:43:28.495Z,989.74
2018-12-20T03:44:28.610Z,989.75
2018-12-20T03:45:29.182Z,989.71
2018-12-20T03:46:28.419Z,989.65
2018-12-20T03:47:28.670Z,989.67
2018-12-20T03:48:28.397Z,989.74
2018-12-20T03:49:28.451Z,989.77
2018-12-20T03:50:28.554Z,989.73
2018-12-20T03:51:28.367Z,989.76
2018-12-20T03:52:28.381Z,989.74
2018-12-20T03:53:28.632Z,989.81
2018-12-20T03:54:28.531Z,989.83
2018-12-20T03:55:28.369Z,989.79
2018-12-20T03:56:28.362Z,989.81
2018-12-20T03:57:28.320Z,989.72
2018-12-20T03:58:28.307Z,989.75
2018-12-20T03:59:28.298Z,989.74
2018-12-20T04:00:28.314Z,989.81
2018-12-20T04:01:28.392Z,989.79
2018-12-20T04:02:28.357Z,989.79
2018-12-20T04:03:28.304Z,989.75
2018-12-20T04:04:28.438Z,989.76
2018-12-20T04:05:28.286Z,989.8
2018-12-20T04:06:28.234Z,989.85
2018-12-20T04:07:28.278Z,989.82
2018-12-20T04:08:28.215Z,989.81
2018-12-20T04:09:28.207Z,989.8
2018-12-20T04:10:28.266Z,989.87
2018-12-20T04:11:28.190Z,989.82
2018-12-20T04:12:28.479Z,989.77
2018-12-20T04:13:28.387Z,989.85
2018-12-20T04:14:28.167Z,989.8
2018-12-20T04:15:28.155Z,989.8
2018-12-20T04:16:28.283Z,989.85
2018-12-20T04:17:28.245Z,989.86
2018-12-20T04:18:28.135Z,989.85
2018-12-20T04:19:28.126Z,989.84
2018-12-20T04:20:28.103Z,989.89
2018-12-20T04:21:28.323Z,989.9
2018-12-20T04:22:28.089Z,989.95
2018-12-20T04:23:28.080Z,989.92
2018-12-20T04:24:28.087Z,989.93
2018-12-20T04:25:28.281Z,989.99
2018-12-20T04:26:28.052Z,989.96
2018-12-20T04:27:28.096Z,989.94
2018-12-20T04:28:28.230Z,989.95
2018-12-20T04:29:28.194Z,989.93
2018-12-20T04:30:28.018Z,989.91
2018-12-20T04:31:28.235Z,989.98
2018-12-20T04:32:28.036Z,990
2018-12-20T04:33:27.987Z,989.98
2018-12-20T04:34:28.024Z,989.94
2018-12-20T04:35:28.074Z,989.97
2018-12-20T04:36:28.259Z,990.01
2018-12-20T04:37:28.078Z,990.06
2018-12-20T04:38:28.229Z,990.03
2018-12-20T04:39:28.188Z,990.06
2018-12-20T04:40:28.128Z,990.03
2018-12-20T04:41:27.955Z,990.11
2018-12-20T04:42:27.907Z,990.04
2018-12-20T04:43:28.035Z,990.05
2018-12-20T04:44:28.010Z,990.11
2018-12-20T04:45:27.883Z,990.08
2018-12-20T04:46:28.044Z,990.15
2018-12-20T04:47:27.865Z,990.17
2018-12-20T04:48:28.119Z,990.21
2018-12-20T04:49:28.013Z,990.19
2018-12-20T04:50:27.902Z,990.19
2018-12-20T04:51:27.874Z,990.19
2018-12-20T04:52:30.234Z,990.22
2018-12-20T04:53:27.964Z,990.23
2018-12-20T04:54:28.023Z,990.18
2018-12-20T04:55:28.083Z,990.25
2018-12-20T04:56:27.808Z,990.2
2018-12-20T04:57:28.090Z,990.2
2018-12-20T04:58:27.988Z,990.19
2018-12-20T04:59:27.803Z,990.22
2018-12-20T05:00:27.758Z,990.2
2018-12-20T05:01:27.867Z,990.17
2018-12-20T05:02:27.873Z,990.2
2018-12-20T05:03:27.727Z,990.17
2018-12-20T05:04:27.716Z,990.18
2018-12-20T05:05:27.715Z,990.18
2018-12-20T05:06:27.702Z,990.21
2018-12-20T05:07:27.919Z,990.21
2018-12-20T05:08:27.795Z,990.12
2018-12-20T05:09:27.755Z,990.15
2018-12-20T05:10:27.688Z,990.24
2018-12-20T05:11:27.962Z,990.23
2018-12-20T05:12:27.844Z,990.21
2018-12-20T05:13:27.878Z,990.25
2018-12-20T05:14:27.724Z,990.23
2018-12-20T05:15:27.632Z,990.32
2018-12-20T05:16:27.758Z,990.25
2018-12-20T05:17:27.613Z,990.24
2018-12-20T05:18:27.708Z,990.32
2018-12-20T05:19:27.590Z,990.3
2018-12-20T05:20:27.909Z,990.33
2018-12-20T05:21:27.597Z,990.34
2018-12-20T05:22:27.695Z,990.35
2018-12-20T05:23:27.674Z,990.32
2018-12-20T05:24:27.660Z,990.35
2018-12-20T05:25:27.565Z,990.38
2018-12-20T05:26:27.540Z,990.34
2018-12-20T05:27:27.675Z,990.34
2018-12-20T05:28:27.606Z,990.34
2018-12-20T05:29:27.674Z,990.37
2018-12-20T05:30:27.513Z,990.37
2018-12-20T05:31:27.491Z,990.39
2018-12-20T05:32:27.612Z,990.39
2018-12-20T05:33:27.473Z,990.41
2018-12-20T05:34:27.506Z,990.41
2018-12-20T05:35:27.462Z,990.44
2018-12-20T05:36:27.677Z,990.44
2018-12-20T05:37:27.527Z,990.48
2018-12-20T05:38:27.544Z,990.43
2018-12-20T05:39:27.535Z,990.46
2018-12-20T05:40:27.489Z,990.45
2018-12-20T05:41:27.589Z,990.46
2018-12-20T05:42:27.501Z,990.43
2018-12-20T05:43:27.405Z,990.41
2018-12-20T05:44:27.383Z,990.42
2018-12-20T05:45:27.424Z,990.46
2018-12-20T05:46:27.370Z,990.44
2018-12-20T05:47:27.455Z,990.43
2018-12-20T05:48:27.350Z,990.5
2018-12-20T05:49:27.554Z,990.49
2018-12-20T05:50:27.333Z,990.49
2018-12-20T05:51:27.328Z,990.48
2018-12-20T05:52:27.316Z,990.48
2018-12-20T05:53:27.308Z,990.45
2018-12-20T05:54:27.490Z,990.47
2018-12-20T05:55:27.365Z,990.5
2018-12-20T05:56:27.280Z,990.51
2018-12-20T05:57:27.280Z,990.55
2018-12-20T05:58:27.272Z,990.56
2018-12-20T05:59:27.266Z,990.56
2018-12-20T06:00:27.307Z,990.55
2018-12-20T06:01:27.246Z,990.54
2018-12-20T06:02:27.260Z,990.57
2018-12-20T06:03:27.444Z,990.55
2018-12-20T06:04:27.243Z,990.54
2018-12-20T06:05:27.329Z,990.56
2018-12-20T06:06:27.347Z,990.58
2018-12-20T06:07:27.207Z,990.6
2018-12-20T06:08:27.183Z,990.57
2018-12-20T06:09:27.429Z,990.6
2018-12-20T06:10:27.209Z,990.59
2018-12-20T06:11:27.295Z,990.63
2018-12-20T06:12:27.216Z,990.66
2018-12-20T06:13:27.387Z,990.65
2018-12-20T06:14:27.136Z,990.66
2018-12-20T06:15:27.142Z,990.63
2018-12-20T06:16:27.125Z,990.65
2018-12-20T06:17:27.109Z,990.68
2018-12-20T06:18:27.101Z,990.7
2018-12-20T06:19:27.337Z,990.71
2018-12-20T06:20:27.108Z,990.74
2018-12-20T06:21:27.075Z,990.72
2018-12-20T06:22:27.226Z,990.71
2018-12-20T06:23:27.066Z,990.66
2018-12-20T06:24:27.050Z,990.69
2018-12-20T06:25:27.040Z,990.72
2018-12-20T06:26:27.030Z,990.73
2018-12-20T06:27:27.024Z,990.72
2018-12-20T06:28:27.015Z,990.72
2018-12-20T06:29:27.008Z,990.69
2018-12-20T06:30:26.998Z,990.73
2018-12-20T06:31:27.015Z,990.82
2018-12-20T06:32:26.990Z,990.77
2018-12-20T06:33:26.973Z,990.8
2018-12-20T06:34:26.966Z,990.85
2018-12-20T06:35:26.960Z,990.79
2018-12-20T06:36:26.948Z,990.82
2018-12-20T06:37:26.960Z,990.87
2018-12-20T06:38:26.954Z,990.86
2018-12-20T06:39:26.925Z,990.93
2018-12-20T06:40:26.916Z,990.89
2018-12-20T06:41:26.905Z,990.99
2018-12-20T06:42:26.900Z,990.94
2018-12-20T06:43:26.894Z,990.97
2018-12-20T06:44:26.892Z,990.99
2018-12-20T06:45:26.895Z,991.03
2018-12-20T06:46:26.866Z,991.01
2018-12-20T06:47:26.857Z,991.02
2018-12-20T06:48:26.850Z,991.03
2018-12-20T06:49:26.843Z,990.95
2018-12-20T06:50:26.833Z,991.01
2018-12-20T06:51:26.826Z,990.99
2018-12-20T06:52:26.815Z,991.03
2018-12-20T06:53:26.808Z,991.09
2018-12-20T06:54:26.882Z,991
2018-12-20T06:55:26.789Z,990.99
2018-12-20T06:56:26.787Z,991.07
2018-12-20T06:57:26.773Z,991.07
2018-12-20T06:58:26.766Z,991.06
2018-12-20T06:59:26.811Z,991.07
2018-12-20T07:00:26.817Z,991.04
2018-12-20T07:01:26.748Z,991.06
2018-12-20T07:02:26.733Z,991.03
2018-12-20T07:03:26.728Z,991.06
2018-12-20T07:04:26.724Z,991.1
2018-12-20T07:05:26.708Z,991.09
2018-12-20T07:06:26.716Z,991.14
2018-12-20T07:07:26.692Z,991.15
2018-12-20T07:08:28.285Z,991.15
2018-12-20T07:09:26.673Z,991.11
2018-12-20T07:10:26.674Z,991.13
2018-12-20T07:11:26.711Z,991.12
2018-12-20T07:12:26.649Z,991.14
2018-12-20T07:13:26.642Z,991.09
2018-12-20T07:14:26.635Z,991.12
2018-12-20T07:15:26.627Z,991.16
2018-12-20T07:16:29.361Z,991.08
2018-12-20T07:17:26.614Z,991.12
2018-12-20T07:18:26.700Z,991.08
2018-12-20T07:19:26.593Z,991.05
2018-12-20T07:20:26.627Z,991.06
2018-12-20T07:21:26.576Z,991.11
2018-12-20T07:22:26.566Z,991.05
2018-12-20T07:23:26.559Z,991.06
2018-12-20T07:24:26.549Z,991.09
2018-12-20T07:25:26.544Z,991.04
2018-12-20T07:26:26.534Z,991.11
2018-12-20T07:27:26.525Z,991.13
2018-12-20T07:28:26.516Z,991.23
2018-12-20T07:29:26.508Z,991.17
2018-12-20T07:30:26.500Z,991.16
2018-12-20T07:31:26.491Z,991.14
2018-12-20T07:32:26.486Z,991.16
2018-12-20T07:33:26.479Z,991.19
2018-12-20T07:34:26.467Z,991.19
2018-12-20T07:35:26.459Z,991.17
2018-12-20T07:36:26.454Z,991.16
2018-12-20T07:37:26.446Z,991.18
2018-12-20T07:38:26.435Z,991.22
2018-12-20T07:39:26.541Z,991.2
2018-12-20T07:40:26.420Z,991.23
2018-12-20T07:41:26.416Z,991.25
2018-12-20T07:42:26.402Z,991.26
2018-12-20T07:43:26.396Z,991.26
2018-12-20T07:44:26.386Z,991.31
2018-12-20T07:45:26.380Z,991.27
2018-12-20T07:46:26.370Z,991.29
2018-12-20T07:47:26.364Z,991.32
2018-12-20T07:48:31.988Z,991.29
2018-12-20T07:49:26.347Z,991.33
2018-12-20T07:50:26.343Z,991.37
2018-12-20T07:51:26.333Z,991.35
2018-12-20T07:52:26.342Z,991.36
2018-12-20T07:53:26.315Z,991.38
2018-12-20T07:54:27.423Z,991.38
2018-12-20T07:55:26.300Z,991.37
2018-12-20T07:56:26.292Z,991.4
2018-12-20T07:57:26.298Z,991.4
2018-12-20T07:58:26.278Z,991.48
2018-12-20T07:59:26.275Z,991.46
2018-12-20T08:00:26.260Z,991.45
2018-12-20T08:01:26.259Z,991.46
2018-12-20T08:02:26.245Z,991.51
2018-12-20T08:03:26.248Z,991.42
2018-12-20T08:04:26.236Z,991.45
2018-12-20T08:05:26.246Z,991.47
2018-12-20T08:06:26.238Z,991.46
2018-12-20T08:07:26.206Z,991.49
2018-12-20T08:08:26.199Z,991.46
2018-12-20T08:09:26.194Z,991.52
2018-12-20T08:10:26.186Z,991.53
2018-12-20T08:11:26.179Z,991.48
2018-12-20T08:12:26.187Z,991.51
2018-12-20T08:13:26.184Z,991.5
2018-12-20T08:14:26.182Z,991.49
2018-12-20T08:15:26.144Z,991.56
2018-12-20T08:16:26.140Z,991.53
2018-12-20T08:17:26.128Z,991.58
2018-12-20T08:18:26.120Z,991.61
2018-12-20T08:19:26.115Z,991.63
2018-12-20T08:20:26.105Z,991.6
2018-12-20T08:21:26.098Z,991.67
2018-12-20T08:22:26.093Z,991.71
2018-12-20T08:23:26.083Z,991.68
2018-12-20T08:24:26.080Z,991.64
2018-12-20T08:25:27.872Z,991.66
2018-12-20T08:26:26.060Z,991.69
2018-12-20T08:27:26.073Z,991.74
2018-12-20T08:28:26.046Z,991.7
2018-12-20T08:29:26.038Z,991.74
2018-12-20T08:30:26.033Z,991.73
2018-12-20T08:31:26.023Z,991.66
2018-12-20T08:32:26.017Z,991.65
2018-12-20T08:33:26.013Z,991.69
2018-12-20T08:34:26.007Z,991.7
2018-12-20T08:35:26.005Z,991.7
2018-12-20T08:36:25.992Z,991.75
2018-12-20T08:37:25.982Z,991.75
2018-12-20T08:38:25.975Z,991.79
2018-12-20T08:39:25.966Z,991.81
2018-12-20T08:40:25.958Z,991.77
2018-12-20T08:41:25.949Z,991.81
2018-12-20T08:42:25.947Z,991.79
2018-12-20T08:43:25.951Z,991.72
2018-12-20T08:44:25.934Z,991.72
2018-12-20T08:45:25.924Z,991.71
2018-12-20T08:46:25.928Z,991.69
2018-12-20T08:47:25.917Z,991.75
2018-12-20T08:48:25.908Z,991.76
2018-12-20T08:49:25.896Z,991.8
2018-12-20T08:50:25.887Z,991.79
2018-12-20T08:51:25.881Z,991.83
2018-12-20T08:52:25.881Z,991.85
2018-12-20T08:53:25.865Z,991.86
2018-12-20T08:54:25.857Z,991.8
2018-12-20T08:55:25.858Z,991.85
2018-12-20T08:56:25.845Z,991.92
2018-12-20T08:57:25.837Z,991.9
2018-12-20T08:58:25.828Z,991.94
2018-12-20T08:59:25.831Z,991.92
2018-12-20T09:00:25.813Z,991.93
2018-12-20T09:01:25.809Z,992.01
2018-12-20T09:02:25.803Z,991.98
2018-12-20T09:03:25.801Z,991.98
2018-12-20T09:04:25.822Z,991.92
2018-12-20T09:05:25.778Z,991.98
2018-12-20T09:06:25.771Z,992.02
2018-12-20T09:07:25.770Z,991.97
2018-12-20T09:08:25.759Z,991.95
2018-12-20T09:09:25.748Z,991.93
2018-12-20T09:10:25.751Z,991.95
2018-12-20T09:11:25.737Z,991.94
2018-12-20T09:12:25.728Z,991.92
2018-12-20T09:13:25.719Z,991.99
2018-12-20T09:14:25.718Z,991.97
2018-12-20T09:15:25.705Z,991.95
2018-12-20T09:16:25.698Z,991.92
2018-12-20T09:17:25.693Z,991.94
2018-12-20T09:18:25.685Z,991.99
2018-12-20T09:19:25.679Z,991.96
2018-12-20T09:20:32.642Z,991.96
2018-12-20T09:21:25.663Z,991.94
2018-12-20T09:22:25.658Z,991.93
2018-12-20T09:23:25.653Z,991.92
2018-12-20T09:24:25.648Z,991.89
2018-12-20T09:25:25.639Z,991.89
2018-12-20T09:26:25.648Z,991.89
2018-12-20T09:27:25.623Z,991.93
2018-12-20T09:28:25.627Z,991.95
2018-12-20T09:29:25.612Z,991.91
2018-12-20T09:30:30.382Z,991.94
2018-12-20T09:31:25.597Z,991.93
2018-12-20T09:32:25.596Z,991.91
2018-12-20T09:33:25.586Z,991.84
2018-12-20T09:34:25.580Z,991.91
2018-12-20T09:35:25.575Z,991.86
2018-12-20T09:36:25.564Z,991.86
2018-12-20T09:37:25.563Z,991.75
2018-12-20T09:38:25.553Z,991.8
2018-12-20T09:39:25.555Z,991.87
2018-12-20T09:40:25.553Z,991.83
2018-12-20T09:41:25.536Z,991.83
2018-12-20T09:42:25.529Z,991.83
2018-12-20T09:43:25.528Z,991.85
2018-12-20T09:44:25.524Z,991.85
2018-12-20T09:45:25.511Z,991.9
2018-12-20T09:46:25.507Z,991.88
2018-12-20T09:47:25.496Z,991.85
2018-12-20T09:48:25.500Z,991.86
2018-12-20T09:49:25.524Z,991.82
2018-12-20T09:50:25.478Z,991.88
2018-12-20T09:51:25.473Z,991.85
2018-12-20T09:52:25.465Z,991.86
2018-12-20T09:53:25.467Z,991.88
2018-12-20T09:54:25.460Z,991.82
2018-12-20T09:55:25.448Z,991.81
2018-12-20T09:56:29.457Z,991.83
2018-12-20T09:57:25.436Z,991.81
2018-12-20T09:58:25.434Z,991.8
2018-12-20T09:59:25.422Z,991.8
2018-12-20T10:00:25.415Z,991.76
2018-12-20T10:01:25.420Z,991.77
2018-12-20T10:02:25.402Z,991.73
2018-12-20T10:03:25.400Z,991.72
2018-12-20T10:04:25.390Z,991.72
2018-12-20T10:05:25.386Z,991.76
2018-12-20T10:06:25.382Z,991.72
2018-12-20T10:07:25.374Z,991.71
2018-12-20T10:08:25.369Z,991.73
2018-12-20T10:09:25.364Z,991.71
2018-12-20T10:10:25.368Z,991.74
2018-12-20T10:11:25.347Z,991.63
2018-12-20T10:12:25.345Z,991.65
2018-12-20T10:13:25.339Z,991.68
2018-12-20T10:14:25.335Z,991.67
2018-12-20T10:15:25.327Z,991.63
2018-12-20T10:16:25.323Z,991.69
2018-12-20T10:17:25.331Z,991.66
2018-12-20T10:18:25.321Z,991.7
2018-12-20T10:19:25.311Z,991.68
2018-12-20T10:20:25.308Z,991.65
2018-12-20T10:21:25.291Z,991.75
2018-12-20T10:22:25.285Z,991.74
2018-12-20T10:23:25.279Z,991.67
2018-12-20T10:24:25.275Z,991.66
2018-12-20T10:25:25.268Z,991.66
2018-12-20T10:26:25.269Z,991.67
2018-12-20T10:27:31.305Z,991.63
2018-12-20T10:28:25.256Z,991.61
2018-12-20T10:29:25.253Z,991.65
2018-12-20T10:30:25.240Z,991.66
2018-12-20T10:31:25.234Z,991.61
2018-12-20T10:32:25.224Z,991.58
2018-12-20T10:33:25.220Z,991.57
2018-12-20T10:34:25.216Z,991.53
2018-12-20T10:35:25.207Z,991.5
2018-12-20T10:36:25.200Z,991.57
2018-12-20T10:37:25.195Z,991.55
2018-12-20T10:38:25.210Z,991.49
2018-12-20T10:39:25.197Z,991.47
2018-12-20T10:40:25.178Z,991.49
2018-12-20T10:41:25.188Z,991.49
2018-12-20T10:42:25.170Z,991.47
2018-12-20T10:43:25.163Z,991.52
2018-12-20T10:44:25.158Z,991.54
2018-12-20T10:45:25.152Z,991.56
2018-12-20T10:46:25.146Z,991.53
2018-12-20T10:47:28.940Z,991.48
2018-12-20T10:48:25.136Z,991.55
2018-12-20T10:49:25.169Z,991.49
2018-12-20T10:50:25.127Z,991.46
2018-12-20T10:51:25.121Z,991.47
2018-12-20T10:52:25.133Z,991.43
2018-12-20T10:53:25.111Z,991.43
2018-12-20T10:54:25.106Z,991.52
2018-12-20T10:55:25.098Z,991.53
2018-12-20T10:56:25.096Z,991.47
2018-12-20T10:57:25.107Z,991.47
2018-12-20T10:58:25.082Z,991.42
2018-12-20T10:59:25.077Z,991.44
2018-12-20T11:00:25.072Z,991.45
2018-12-20T11:01:25.066Z,991.52
2018-12-20T11:02:25.062Z,991.4
2018-12-20T11:03:25.051Z,991.37
2018-12-20T11:04:25.062Z,991.47
2018-12-20T11:05:25.041Z,991.4
2018-12-20T11:06:25.034Z,991.42
2018-12-20T11:07:25.026Z,991.41
2018-12-20T11:08:25.027Z,991.4
2018-12-20T11:09:25.017Z,991.47
2018-12-20T11:10:25.014Z,991.43
2018-12-20T11:11:25.010Z,991.41
2018-12-20T11:12:24.998Z,991.35
2018-12-20T11:13:25.001Z,991.46
2018-12-20T11:14:25.007Z,991.39
2018-12-20T11:15:24.981Z,991.43
2018-12-20T11:16:24.978Z,991.43
2018-12-20T11:17:24.965Z,991.4
2018-12-20T11:18:24.960Z,991.38
2018-12-20T11:19:24.955Z,991.46
2018-12-20T11:20:24.952Z,991.41
2018-12-20T11:21:24.945Z,991.48
2018-12-20T11:22:24.946Z,991.42
2018-12-20T11:23:24.936Z,991.42
2018-12-20T11:24:24.929Z,991.43
2018-12-20T11:25:24.923Z,991.41
2018-12-20T11:26:24.920Z,991.43
2018-12-20T11:27:24.906Z,991.44
2018-12-20T11:28:24.900Z,991.39
2018-12-20T11:29:24.920Z,991.34
2018-12-20T11:30:24.889Z,991.41
2018-12-20T11:31:24.884Z,991.46
2018-12-20T11:32:24.951Z,991.31
2018-12-20T11:33:24.870Z,991.33
2018-12-20T11:34:24.865Z,991.37
2018-12-20T11:35:24.857Z,991.31
2018-12-20T11:36:24.850Z,991.38
2018-12-20T11:37:24.866Z,991.33
2018-12-20T11:38:24.843Z,991.38
2018-12-20T11:39:24.866Z,991.37
2018-12-20T11:40:24.831Z,991.22
2018-12-20T11:41:24.834Z,991.24
2018-12-20T11:42:24.827Z,991.23
2018-12-20T11:43:24.825Z,991.25
2018-12-20T11:44:24.813Z,991.18
2018-12-20T11:45:24.811Z,991.16
2018-12-20T11:46:24.794Z,991.21
2018-12-20T11:47:24.785Z,991.23
2018-12-20T11:48:24.784Z,991.2
2018-12-20T11:49:24.777Z,991.13
2018-12-20T11:50:24.769Z,991.1
2018-12-20T11:51:24.758Z,991.15
2018-12-20T11:52:24.752Z,991.09
2018-12-20T11:53:24.747Z,991.09
2018-12-20T11:54:24.738Z,991.05
2018-12-20T11:55:24.740Z,991.01
2018-12-20T11:56:24.731Z,991.02
2018-12-20T11:57:24.725Z,990.99
2018-12-20T11:58:24.717Z,991.03
2018-12-20T11:59:24.716Z,991
2018-12-20T12:00:24.705Z,991.07
2018-12-20T12:01:24.699Z,990.97
2018-12-20T12:02:24.898Z,990.91
2018-12-20T12:03:24.703Z,990.91
2018-12-20T12:04:24.679Z,990.91
2018-12-20T12:05:24.673Z,990.94
2018-12-20T12:06:24.673Z,990.95
2018-12-20T12:07:24.661Z,990.96
2018-12-20T12:08:24.658Z,990.99
2018-12-20T12:09:24.650Z,990.98
2018-12-20T12:10:24.644Z,990.96
2018-12-20T12:11:24.638Z,991
2018-12-20T12:12:24.631Z,990.87
2018-12-20T12:13:25.979Z,990.91
2018-12-20T12:14:24.632Z,990.92
2018-12-20T12:15:26.516Z,990.91
2018-12-20T12:16:24.611Z,990.96
2018-12-20T12:17:24.608Z,990.95
2018-12-20T12:18:24.596Z,990.97
2018-12-20T12:19:24.591Z,990.98
2018-12-20T12:20:24.586Z,990.95
2018-12-20T12:21:24.580Z,990.93
2018-12-20T12:22:24.578Z,990.92
2018-12-20T12:23:24.564Z,990.97
2018-12-20T12:24:24.560Z,990.98
2018-12-20T12:25:24.554Z,991
2018-12-20T12:26:24.548Z,990.98
2018-12-20T12:27:24.558Z,990.97
2018-12-20T12:28:24.544Z,990.99
2018-12-20T12:29:24.531Z,990.99
2018-12-20T12:30:24.525Z,991.01